Murraysville, West Virginia
Current Conditions -  °F | °C
As of 10:35 PM on Saturday 24 Jan 2015 (Local Time) from K3I2 Reporting Station
Overcast Overcast  
Wind Chill: 27°   Ceiling: 5500
Heat Index: 34°   Visibility: 7mi
Dew Point: 32°   Wind: 8mph
Humidity: 93%   Direction: 230°SW
Pressure: 29.84"   Gusts: NA
Location:  38.9394°N, 81.7245°W
Report Text: K3I2 250335Z AUTO 23007KT 7SM OVC055 01/00 A2984 RMK AO2
Loading
Personal Weather Stations






























Interactive Weather Map New forecast layout! Learn more

10-Day Weather Forecast

Advertisements
Track Severe Weather on mobile